Latest Weather Observations for Kyabram

IDV60801

Issued at 5:03 pm EST Saturday 23 September 2017 (issued every 30 minutes, with the page automatically refreshed every 10 minutes)

About weather observations | Map of weather stations | Latest weather observations for VIC | Other Formats
Station Details ID: 080091 Name: KYABRAM Lat: -36.34 Lon: 145.06 Height: 105.0 m
Data from the previous 72 hours. | See also: Recent months at Kyabram
Date/Time
EST
Temp
°C
App
Temp
°C
Dew
Point
°C
Rel
Hum
%
Delta-T
°C
Wind Press
QNH
hPa
Press
MSL
hPa
Rain since
9am
mm
Dir  Spd
km/h
Gust
km/h
Spd
kts
Gust
kts
23/05:00pm 28.0 23.8 8.3 29 10.8 W 20 35 11 19 - - 0.0
23/04:30pm 28.6 23.7 6.7 25 11.7 W 22 41 12 22 - - 0.0
23/04:00pm 30.1 24.5 5.4 21 13.0 W 24 43 13 23 - - 0.0
23/03:30pm 32.4 25.8 4.2 17 14.7 WNW 28 54 15 29 - - 0.0
23/03:04pm 33.5 26.7 3.3 15 15.7 NW 28 48 15 26 - - 0.0
23/03:00pm 33.8 28.0 4.5 16 15.5 NW 24 44 13 24 - - 0.0
23/02:30pm 30.7 25.5 7.2 23 12.8 NNW 24 41 13 22 - - 0.0
23/02:11pm 31.1 25.1 6.9 22 13.1 NNW 28 46 15 25 - - 0.0
23/02:00pm 30.9 24.1 6.7 22 13.1 NNW 32 48 17 26 - - 0.0
23/01:54pm 31.9 25.9 6.9 21 13.6 N 28 41 15 22 - - 0.0
23/01:30pm 30.8 28.1 10.2 28 11.8 N 15 20 8 11 - - 0.0
23/01:00pm 29.2 25.3 7.2 25 11.9 N 17 24 9 13 - - 0.0
23/12:30pm 28.7 25.0 7.9 27 11.3 N 17 24 9 13 - - 0.0
23/12:00pm 28.5 23.9 6.6 25 11.7 NNE 20 32 11 17 - - 0.0
23/11:30am 28.3 23.4 8.6 29 10.8 NNE 24 37 13 20 - - 0.0
23/11:00am 26.5 22.6 7.0 29 10.3 NNE 17 28 9 15 - - 0.0
23/10:30am 24.7 20.9 7.4 33 9.1 NNE 17 28 9 15 - - 0.0
23/10:00am 22.2 18.9 8.0 40 7.5 NNE 15 24 8 13 - - 0.0
23/09:30am 20.4 17.5 8.1 45 6.4 NE 13 24 7 13 - - 0.0
23/09:00am 18.5 14.7 5.7 43 6.3 NE 15 24 8 13 - - 0.0
23/08:30am 16.6 12.2 4.6 45 5.7 ENE 17 24 9 13 - - 0.0
23/08:00am 14.9 10.7 4.0 48 5.0 ENE 15 22 8 12 - - 0.0
23/07:30am 12.7 8.1 3.9 55 4.0 ENE 17 24 9 13 - - 0.0
23/07:00am 11.3 7.3 3.1 57 3.6 ENE 13 22 7 12 - - 0.0
23/06:30am 10.5 6.9 3.1 60 3.2 E 11 17 6 9 - - 0.0
23/06:00am 10.3 7.2 3.6 63 3.0 E 9 13 5 7 - - 0.0
23/05:30am 9.7 6.5 3.2 64 2.8 E 9 13 5 7 - - 0.0
23/05:00am 9.8 6.7 3.5 65 2.8 E 9 13 5 7 - - 0.0
23/04:30am 9.9 6.9 4.3 68 2.5 E 9 13 5 7 - - 0.0
23/04:00am 8.9 6.0 4.7 75 1.9 E 9 13 5 7 - - 0.0
23/03:30am 10.7 7.8 4.8 67 2.7 ESE 9 15 5 8 - - 0.0
23/03:00am 10.6 7.9 5.8 72 2.2 E 9 13 5 7 - - 0.0
23/02:30am 10.1 7.6 6.6 79 1.6 E 9 13 5 7 - - 0.0
23/02:00am 10.6 9.5 6.7 77 1.8 SSE 2 7 1 4 - - 0.0
23/01:30am 12.1 9.7 7.2 72 2.4 E 9 13 5 7 - - 0.0
23/01:00am 12.5 10.2 7.6 72 2.4 E 9 13 5 7 - - 0.0
23/12:30am 12.5 10.4 8.4 76 2.0 E 9 11 5 6 - - 0.0
23/12:00am 11.6 11.5 9.3 86 1.2 CALM 0 0 0 0 - - 0.0
 
Date/Time
EST
Temp
°C
App
Temp
°C
Dew
Point
°C
Rel
Hum
%
Delta-T
°C
Wind Press
QNH
hPa
Press
MSL
hPa
Rain since
9am
mm
Dir  Spd
km/h
Gust
km/h
Spd
kts
Gust
kts
22/11:30pm 10.5 10.1 8.4 87 1.0 CALM 0 0 0 0 - - 0.0
22/11:00pm 11.1 10.8 8.5 84 1.3 CALM 0 0 0 0 - - 0.0
22/10:30pm 11.5 11.3 9.2 86 1.2 CALM 0 0 0 0 - - 0.0
22/10:00pm 12.4 12.1 8.7 78 1.9 CALM 0 0 0 0 - - 0.0
22/09:30pm 13.4 12.9 9.5 77 2.0 ESE 2 7 1 4 - - 0.0
22/09:00pm 14.1 12.6 9.3 73 2.5 ESE 7 11 4 6 - - 0.0
22/08:30pm 15.6 14.2 9.7 68 3.1 ESE 7 11 4 6 - - 0.0
22/08:00pm 16.7 15.3 9.6 63 3.7 ESE 7 11 4 6 - - 0.0
22/07:30pm 17.5 16.2 9.9 61 4.0 ESE 7 9 4 5 - - 0.0
22/07:00pm 18.5 17.3 10.3 59 4.4 ESE 7 13 4 7 - - 0.0
22/06:30pm 19.2 17.7 10.7 58 4.6 ESE 9 13 5 7 - - 0.0
22/06:00pm 20.5 19.7 10.9 54 5.3 ESE 6 9 3 5 - - 0.0
22/05:30pm 21.9 21.2 11.3 51 5.9 ESE 6 11 3 6 - - 0.0
22/05:00pm 22.8 21.5 11.2 48 6.5 E 9 15 5 8 - - 0.0
22/04:30pm 23.6 21.5 9.9 42 7.5 E 11 17 6 9 - - 0.0
22/04:00pm 23.6 22.1 10.6 44 7.2 E 9 15 5 8 - - 0.0
22/03:30pm 23.7 21.4 10.4 43 7.4 ESE 13 19 7 10 - - 0.0
22/03:00pm 23.7 21.9 10.7 44 7.2 E 11 19 6 10 - - 0.0
22/02:30pm 23.6 21.7 10.6 44 7.2 E 11 17 6 9 - - 0.0
22/02:00pm 22.9 20.3 9.3 42 7.4 E 13 19 7 10 - - 0.0
22/01:30pm 22.9 21.5 9.7 43 7.2 ENE 7 15 4 8 - - 0.0
22/01:00pm 22.0 21.1 9.2 44 6.9 NE 4 11 2 6 - - 0.0
22/12:30pm 21.5 20.2 9.1 45 6.6 NE 6 11 3 6 - - 0.0
22/12:00pm 21.1 19.0 8.4 44 6.7 ENE 9 13 5 7 - - 0.0
22/11:30am 20.8 19.0 8.1 44 6.6 E 7 15 4 8 - - 0.0
22/11:00am 19.5 17.6 7.6 46 6.1 E 7 11 4 6 - - 0.0
22/10:30am 18.4 16.4 6.3 45 6.0 ENE 6 13 3 7 - - 0.0
22/10:00am 17.1 15.0 6.0 48 5.4 NE 6 11 3 6 - - 0.0
22/09:30am 15.7 12.9 5.0 49 5.1 ENE 9 13 5 7 - - 0.0
22/09:00am 14.4 12.8 6.5 59 3.8 E 4 9 2 5 - - 0.0
22/08:30am 12.7 10.9 5.6 62 3.3 ENE 4 7 2 4 - - 0.0
22/08:00am 10.6 9.6 5.6 71 2.3 CALM 0 0 0 0 - - 0.0
22/07:30am 9.0 6.8 5.4 78 1.6 E 6 9 3 5 - - 0.0
22/07:00am 6.9 4.3 6.0 94 0.4 ENE 9 11 5 6 - - 0.0
22/06:30am 5.2 3.2 4.3 94 0.4 E 4 9 2 5 - - 0.0
22/06:00am 6.0 4.9 5.0 93 0.4 CALM 0 0 0 0 - - 0.0
22/05:30am 6.3 4.9 5.4 94 0.4 SE 2 6 1 3 - - 0.0
22/05:00am 6.0 3.7 5.7 98 0.1 ESE 7 9 4 5 - - 0.0
22/04:30am 5.9 4.8 5.0 94 0.4 CALM 0 0 0 0 - - 0.0
22/04:00am 6.2 5.1 5.2 93 0.4 CALM 0 0 0 0 - - 0.0
22/03:30am 6.8 5.9 6.2 96 0.3 CALM 0 0 0 0 - - 0.0
22/03:00am 6.8 5.9 6.1 95 0.3 CALM 0 0 0 0 - - 0.0
22/02:30am 6.8 5.8 5.6 92 0.5 CALM 0 0 0 0 - - 0.0
22/02:00am 7.9 7.1 6.5 91 0.6 CALM 0 0 0 0 - - 0.0
22/01:30am 7.6 6.6 5.6 87 0.9 CALM 0 0 0 0 - - 0.0
22/01:00am 9.4 7.9 7.0 85 1.1 ESE 4 9 2 5 - - 0.0
22/12:30am 8.2 5.6 6.3 88 0.9 E 9 11 5 6 - - 0.0
22/12:00am 8.8 8.0 6.6 86 1.0 CALM 0 0 0 0 - - 0.0
 
Date/Time
EST
Temp
°C
App
Temp
°C
Dew
Point
°C
Rel
Hum
%
Delta-T
°C
Wind Press
QNH
hPa
Press
MSL
hPa
Rain since
9am
mm
Dir  Spd
km/h
Gust
km/h
Spd
kts
Gust
kts
21/11:30pm 9.8 9.0 6.5 80 1.5 CALM 0 4 0 2 - - 0.0
21/11:00pm 11.4 9.4 6.9 74 2.2 ENE 7 13 4 7 - - 0.0
21/10:30pm 12.1 9.7 7.2 72 2.4 E 9 13 5 7 - - 0.0
21/10:00pm 12.6 10.3 7.3 70 2.6 E 9 13 5 7 - - 0.0
21/09:30pm 13.2 10.8 7.2 67 2.9 ENE 9 11 5 6 - - 0.0
21/09:00pm 14.5 13.6 6.1 57 4.0 CALM 0 0 0 0 - - 0.0
21/08:30pm 14.7 13.9 6.5 58 4.0 CALM 0 0 0 0 - - 0.0
21/08:00pm 15.0 14.1 6.0 55 4.3 CALM 0 0 0 0 - - 0.0
21/07:30pm 16.4 15.6 6.5 52 4.9 CALM 0 0 0 0 - - 0.0
21/07:00pm 17.0 15.9 5.3 46 5.6 CALM 0 7 0 4 - - 0.0
21/06:30pm 18.1 17.3 6.3 46 5.9 CALM 0 0 0 0 - - 0.0
21/06:00pm 19.3 18.6 7.1 45 6.2 CALM 0 0 0 0 - - 0.0
21/05:30pm 20.2 17.6 6.2 40 7.0 N 9 11 5 6 - - 0.0
21/05:00pm 21.4 18.2 5.3 35 8.0 N 11 17 6 9 - - 0.0
21/04:30pm 22.5 18.8 4.5 31 8.9 N 13 20 7 11 - - 0.0
21/04:00pm 23.3 18.8 4.3 29 9.4 N 17 24 9 13 - - 0.0
21/03:30pm 23.8 18.3 4.2 28 9.7 N 22 33 12 18 - - 0.0
21/03:00pm 23.9 19.0 4.3 28 9.7 N 19 33 10 18 - - 0.0
21/02:30pm 23.5 18.7 7.2 35 8.5 NNE 22 33 12 18 - - 0.0
21/02:00pm 22.7 17.7 4.7 31 8.9 NNE 20 32 11 17 - - 0.0
21/01:30pm 22.1 17.6 7.1 38 7.8 N 20 28 11 15 - - 0.0
21/01:00pm 21.5 17.2 7.0 39 7.5 N 19 30 10 16 - - 0.0
21/12:30pm 20.8 16.3 7.1 41 7.0 N 20 30 11 16 - - 0.0
21/12:00pm 19.8 15.4 6.5 42 6.7 NNE 19 32 10 17 - - 0.0
21/11:30am 19.2 15.5 7.9 48 5.8 NNE 17 26 9 14 - - 0.0
21/11:00am 18.1 13.8 7.2 49 5.5 NNE 19 28 10 15 - - 0.0
21/10:30am 17.0 13.8 8.4 57 4.4 NNE 15 24 8 13 - - 0.0
21/10:00am 15.4 11.9 7.4 59 4.0 NNE 15 22 8 12 - - 0.0
21/09:30am 14.1 11.1 7.9 66 3.1 NE 13 20 7 11 - - 0.0
21/09:00am 12.6 9.6 7.5 71 2.5 NE 13 22 7 12 - - 0.0
21/08:30am 11.5 9.3 8.0 79 1.7 NE 9 17 5 9 - - 0.0
21/08:00am 9.5 6.2 6.6 82 1.4 NE 13 24 7 13 - - 0.0
21/07:30am 8.5 5.6 6.5 87 0.9 NE 11 17 6 9 - - 0.0
21/07:00am 7.0 3.5 5.6 91 0.6 NE 13 20 7 11 - - 0.0
21/06:30am 5.7 3.2 5.0 95 0.3 NE 7 13 4 7 - - 0.0
21/06:00am 5.9 3.1 5.0 94 0.4 NE 9 17 5 9 - - 0.0
21/05:30am 5.6 2.7 4.7 94 0.4 NE 9 13 5 7 - - 0.0
21/05:00am 5.8 3.3 4.9 94 0.4 NE 7 13 4 7 - - 0.0
21/04:30am 6.1 3.3 5.1 93 0.4 NE 9 15 5 8 - - 0.0
21/04:00am 5.8 2.5 4.4 91 0.6 ENE 11 13 6 7 - - 0.0
21/03:30am 5.9 2.6 4.5 91 0.6 ENE 11 13 6 7 - - 0.0
21/03:00am 5.8 3.3 4.6 92 0.5 E 7 9 4 5 - - 0.0
21/02:30am 6.2 3.7 4.7 90 0.7 ENE 7 11 4 6 - - 0.0
21/02:00am 6.3 4.3 4.6 89 0.7 NE 4 9 2 5 - - 0.0
21/01:30am 6.9 4.4 4.9 87 0.9 NE 7 11 4 6 - - 0.0
21/01:00am 7.2 4.7 4.7 84 1.1 ENE 7 13 4 7 - - 0.0
21/12:30am 7.9 5.5 5.4 84 1.1 E 7 11 4 6 - - 0.0
21/12:00am 7.8 5.4 5.3 84 1.1 NE 7 11 4 6 - - 0.0
 
Date/Time
EST
Temp
°C
App
Temp
°C
Dew
Point
°C
Rel
Hum
%
Delta-T
°C
Wind Press
QNH
hPa
Press
MSL
hPa
Rain since
9am
mm
Dir  Spd
km/h
Gust
km/h
Spd
kts
Gust
kts
20/11:30pm 7.9 5.5 5.4 84 1.1 NE 7 9 4 5 - - 0.0
20/11:00pm 8.4 5.6 5.3 81 1.4 ENE 9 11 5 6 - - 0.0
20/10:30pm 8.5 5.7 5.3 80 1.4 ENE 9 13 5 7 - - 0.0
20/10:00pm 8.9 6.2 5.5 79 1.5 ENE 9 13 5 7 - - 0.0
20/09:30pm 9.1 6.8 5.7 79 1.6 ENE 7 9 4 5 - - 0.0
20/09:00pm 8.3 6.6 5.8 84 1.1 ENE 4 7 2 4 - - 0.0
20/08:30pm 9.2 8.5 6.8 85 1.1 CALM 0 0 0 0 - - 0.0
20/08:00pm 9.2 8.4 6.6 84 1.2 CALM 0 0 0 0 - - 0.0
20/07:30pm 10.3 9.5 6.6 78 1.7 CALM 0 0 0 0 - - 0.0
20/07:00pm 11.2 10.5 6.9 75 2.1 CALM 0 0 0 0 - - 0.0
20/06:30pm 12.5 11.6 6.1 65 3.0 CALM 0 0 0 0 - - 0.0
20/06:00pm 13.8 12.9 6.2 60 3.6 CALM 0 0 0 0 - - 0.0
20/05:30pm 15.1 14.5 7.2 59 3.9 CALM 0 0 0 0 - - 0.0

Other Formats:

Comma delimited format used in spreadsheet applications
http://www.bom.gov.au/fwo/IDV60801/IDV60801.95833.axf

JavaScript Object Notation format (JSON) in row-major order
http://www.bom.gov.au/fwo/IDV60801/IDV60801.95833.json